Time;durP1;ratioP1;P1;durP2;ratioP2;P2;SDS_P1;SDS_P2;PMS_P1;PMS_P2;Temp;Humidity;BMP_temperature;BMP_pressure;BME280_temperature;BME280_humidity;BME280_pressure;Samples;Min_cycle;Max_cycle;Signal;HPM_P1;HPM_P2
2020/12/10 00:00:51;;;;;;;23.85;16.48;;;2.10;99.90;;;;;;5003034;28;20053;-73
2020/12/10 00:03:16;;;;;;;29.00;18.42;;;2.10;99.90;;;;;;5003615;28;20076;-73
2020/12/10 00:05:42;;;;;;;24.33;17.45;;;2.10;99.90;;;;;;5009381;28;20034;-72
2020/12/10 00:08:07;;;;;;;22.27;15.68;;;2.20;99.90;;;;;;5009962;28;20034;-72
2020/12/10 00:10:33;;;;;;;24.80;16.80;;;2.20;99.90;;;;;;5006272;28;20026;-73
2020/12/10 00:12:58;;;;;;;24.02;16.38;;;2.20;99.90;;;;;;5004592;28;20037;-72
2020/12/10 00:15:25;;;;;;;23.25;14.88;;;2.20;99.90;;;;;;5023044;28;20032;-72
2020/12/10 00:17:50;;;;;;;27.05;17.08;;;2.20;99.90;;;;;;5032114;28;20010;-73
2020/12/10 00:20:16;;;;;;;24.08;17.08;;;2.20;99.90;;;;;;5018217;28;20097;-72
2020/12/10 00:22:41;;;;;;;24.35;15.75;;;2.20;99.90;;;;;;5025173;28;20078;-72
2020/12/10 00:25:07;;;;;;;23.75;16.52;;;2.30;99.90;;;;;;5013003;28;20030;-72
2020/12/10 00:27:34;;;;;;;26.30;17.08;;;2.40;99.90;;;;;;5023555;28;20041;-73
2020/12/10 00:30:01;;;;;;;23.90;18.02;;;2.50;99.90;;;;;;5006828;28;20045;-72
2020/12/10 00:32:27;;;;;;;24.80;16.40;;;2.50;99.90;;;;;;5011627;28;20033;-73
2020/12/10 00:34:56;;;;;;;22.17;15.95;;;2.40;99.90;;;;;;5006355;28;20437;-72
2020/12/10 00:37:28;;;;;;;23.70;16.40;;;2.30;99.90;;;;;;4999914;28;20421;-72
2020/12/10 00:39:55;;;;;;;21.02;14.88;;;2.30;99.90;;;;;;5002865;28;20514;-72
2020/12/10 00:42:22;;;;;;;22.63;15.30;;;2.40;99.90;;;;;;5002503;28;20034;-73
2020/12/10 00:44:47;;;;;;;22.30;15.27;;;2.40;99.90;;;;;;5021926;28;20030;-73
2020/12/10 00:47:20;;;;;;;23.45;16.30;;;2.40;99.90;;;;;;5021052;28;20025;-73
2020/12/10 00:49:46;;;;;;;22.83;15.45;;;2.50;99.90;;;;;;5011129;28;20113;-73
2020/12/10 00:52:13;;;;;;;22.38;15.13;;;2.50;99.90;;;;;;5008623;28;20104;-72
2020/12/10 00:54:39;;;;;;;20.92;15.23;;;2.50;99.90;;;;;;5000053;28;20026;-72
2020/12/10 00:57:12;;;;;;;22.92;15.55;;;2.40;99.90;;;;;;5003958;28;20026;-73
2020/12/10 00:59:38;;;;;;;20.40;14.93;;;2.40;99.90;;;;;;5018815;28;20025;-73
2020/12/10 01:02:04;;;;;;;22.38;15.05;;;2.50;99.90;;;;;;4999256;28;20377;-73
2020/12/10 01:04:30;;;;;;;22.70;15.88;;;2.70;99.90;;;;;;5010072;28;20032;-71
2020/12/10 01:06:56;;;;;;;19.00;14.27;;;2.80;99.90;;;;;;5015258;28;20109;-71
2020/12/10 01:09:21;;;;;;;20.73;14.35;;;2.90;99.90;;;;;;5035525;28;20060;-72
2020/12/10 01:11:47;;;;;;;21.27;14.73;;;2.60;99.90;;;;;;5046948;28;20030;-72
2020/12/10 01:14:12;;;;;;;22.08;14.32;;;2.50;99.90;;;;;;5033929;28;20048;-72
2020/12/10 01:16:38;;;;;;;20.85;15.73;;;2.40;99.90;;;;;;5027286;28;20027;-73
2020/12/10 01:19:04;;;;;;;18.58;14.65;;;2.60;99.90;;;;;;5010667;28;20050;-72
2020/12/10 01:21:34;;;;;;;22.95;15.38;;;2.80;99.90;;;;;;5011826;28;20421;-72
2020/12/10 01:24:02;;;;;;;21.17;13.88;;;2.90;99.90;;;;;;5011729;28;20034;-72
2020/12/10 01:26:30;;;;;;;22.77;15.95;;;3.00;99.90;;;;;;5021412;28;20516;-71
2020/12/10 01:28:56;;;;;;;20.40;14.13;;;3.00;99.90;;;;;;5006375;28;20481;-72
2020/12/10 01:31:21;;;;;;;22.13;14.65;;;3.00;99.90;;;;;;5005043;28;20404;-73
2020/12/10 01:33:47;;;;;;;21.60;14.38;;;3.00;99.90;;;;;;5001539;28;20113;-72
2020/12/10 01:36:20;;;;;;;21.02;15.15;;;3.00;99.90;;;;;;5015013;28;20030;-73
2020/12/10 01:38:46;;;;;;;19.75;14.98;;;2.90;99.90;;;;;;5006760;28;20032;-71
2020/12/10 01:41:12;;;;;;;24.55;16.17;;;2.80;99.90;;;;;;5008998;28;20030;-73
2020/12/10 01:43:38;;;;;;;20.13;15.10;;;2.70;99.90;;;;;;5002729;28;20023;-73
2020/12/10 01:46:05;;;;;;;19.92;14.35;;;2.70;99.90;;;;;;5021086;28;20041;-72
2020/12/10 01:48:32;;;;;;;22.15;15.90;;;2.90;99.90;;;;;;5027611;28;20029;-73
2020/12/10 01:50:57;;;;;;;20.50;14.60;;;2.90;99.90;;;;;;5019519;28;20019;-72
2020/12/10 01:53:23;;;;;;;25.40;17.85;;;2.80;99.90;;;;;;5024947;28;20362;-71
2020/12/10 01:55:49;;;;;;;22.92;16.50;;;2.80;99.90;;;;;;5007284;28;20114;-71
2020/12/10 01:58:14;;;;;;;23.40;16.00;;;2.80;99.90;;;;;;5021091;28;20022;-72
2020/12/10 02:00:40;;;;;;;23.90;16.08;;;2.80;99.90;;;;;;5006647;28;20033;-73
2020/12/10 02:03:05;;;;;;;22.42;15.93;;;2.90;99.90;;;;;;5006911;28;20496;-74
2020/12/10 02:05:31;;;;;;;26.58;17.88;;;2.90;99.90;;;;;;5004823;28;20081;-73
2020/12/10 02:07:56;;;;;;;25.38;15.98;;;2.90;99.90;;;;;;5008598;28;20037;-72
2020/12/10 02:10:22;;;;;;;23.60;16.40;;;2.80;99.90;;;;;;5008458;28;20021;-73
2020/12/10 02:12:47;;;;;;;26.42;18.25;;;2.70;99.90;;;;;;5007580;28;20380;-71
2020/12/10 02:15:15;;;;;;;25.08;17.25;;;2.70;99.90;;;;;;5008705;28;20026;-71
2020/12/10 02:17:41;;;;;;;23.55;16.05;;;2.60;99.90;;;;;;5013333;28;20022;-72
2020/12/10 02:20:06;;;;;;;23.83;16.25;;;2.60;99.90;;;;;;5002886;28;20033;-73
2020/12/10 02:22:32;;;;;;;25.92;17.13;;;2.60;99.90;;;;;;5010731;28;20026;-73
2020/12/10 02:24:58;;;;;;;24.92;16.55;;;2.60;99.90;;;;;;5011854;28;20037;-72
2020/12/10 02:27:23;;;;;;;26.85;17.25;;;2.70;99.90;;;;;;5033475;28;20033;-73
2020/12/10 02:29:49;;;;;;;27.10;17.05;;;2.60;99.90;;;;;;5023060;28;20041;-72
2020/12/10 02:32:14;;;;;;;26.20;17.92;;;2.80;99.90;;;;;;5010220;28;20473;-73
2020/12/10 02:34:40;;;;;;;24.08;16.70;;;2.90;99.90;;;;;;5018301;28;20053;-72
2020/12/10 02:37:05;;;;;;;26.08;16.27;;;2.90;99.90;;;;;;5022317;28;20041;-72
2020/12/10 02:39:31;;;;;;;26.83;17.90;;;3.00;99.90;;;;;;5019680;28;20101;-73
2020/12/10 02:41:56;;;;;;;25.30;16.55;;;2.90;99.90;;;;;;5014759;28;20413;-73
2020/12/10 02:44:22;;;;;;;27.67;18.63;;;2.90;99.90;;;;;;5008631;28;20076;-73
2020/12/10 02:46:47;;;;;;;26.95;17.92;;;2.90;99.90;;;;;;5006537;28;20030;-72
2020/12/10 02:49:13;;;;;;;26.73;17.98;;;2.90;99.90;;;;;;5010377;28;20026;-72
2020/12/10 02:51:42;;;;;;;26.70;18.15;;;2.70;99.90;;;;;;5004668;28;20030;-72
2020/12/10 02:54:08;;;;;;;28.75;18.10;;;2.70;99.90;;;;;;5004364;28;20052;-72
2020/12/10 02:56:34;;;;;;;31.10;18.60;;;2.70;99.90;;;;;;5013546;28;20033;-73
2020/12/10 02:58:59;;;;;;;28.77;18.23;;;2.60;99.90;;;;;;5025868;28;20040;-72
2020/12/10 03:01:25;;;;;;;30.70;18.33;;;2.60;99.90;;;;;;5006940;28;20027;-72
2020/12/10 03:03:50;;;;;;;27.45;17.17;;;2.60;99.90;;;;;;5007441;28;20436;-73
2020/12/10 03:06:16;;;;;;;27.58;18.08;;;2.60;99.90;;;;;;5000557;28;20065;-72
2020/12/10 03:08:41;;;;;;;31.50;18.05;;;2.70;99.90;;;;;;4992184;28;20486;-73
2020/12/10 03:11:07;;;;;;;29.23;17.65;;;2.70;99.90;;;;;;5004016;28;20480;-73
2020/12/10 03:13:33;;;;;;;28.45;18.40;;;2.70;99.90;;;;;;5009455;28;20034;-73
2020/12/10 03:15:58;;;;;;;31.20;19.63;;;2.80;99.90;;;;;;4998832;28;20054;-73
2020/12/10 03:18:25;;;;;;;28.27;18.08;;;2.80;99.90;;;;;;5004522;28;20018;-72
2020/12/10 03:20:51;;;;;;;31.15;18.30;;;2.70;99.90;;;;;;5003813;28;20031;-72
2020/12/10 03:23:17;;;;;;;27.02;18.35;;;2.70;99.90;;;;;;5004324;28;20044;-73
2020/12/10 03:25:42;;;;;;;29.45;19.45;;;2.40;99.90;;;;;;5008327;28;20489;-73
2020/12/10 03:28:08;;;;;;;28.55;19.13;;;2.50;99.90;;;;;;4996750;28;20068;-73
2020/12/10 03:30:33;;;;;;;30.23;19.63;;;2.70;99.90;;;;;;5009791;28;20050;-72
2020/12/10 03:32:59;;;;;;;32.38;18.73;;;2.60;99.90;;;;;;4998265;28;20677;-72
2020/12/10 03:35:25;;;;;;;29.08;17.67;;;2.40;99.90;;;;;;5018437;28;20033;-72
2020/12/10 03:37:51;;;;;;;26.60;17.10;;;2.50;99.90;;;;;;5003274;28;20080;-74
2020/12/10 03:40:16;;;;;;;29.75;19.55;;;2.60;99.90;;;;;;5003050;28;20110;-72
2020/12/10 03:42:42;;;;;;;29.80;19.42;;;2.50;99.90;;;;;;5005129;28;20077;-73
2020/12/10 03:45:07;;;;;;;29.33;18.98;;;2.40;99.90;;;;;;5002848;28;20033;-73
2020/12/10 03:47:33;;;;;;;31.35;19.40;;;2.40;99.90;;;;;;5004861;28;20109;-72
2020/12/10 03:49:59;;;;;;;30.98;21.08;;;2.50;99.90;;;;;;5015262;28;20113;-71
2020/12/10 03:52:25;;;;;;;29.10;19.63;;;2.50;99.90;;;;;;5026056;28;20057;-72
2020/12/10 03:54:51;;;;;;;29.70;19.05;;;2.50;99.90;;;;;;5019883;28;20038;-72
2020/12/10 03:57:16;;;;;;;31.40;19.17;;;2.70;99.90;;;;;;5017253;28;20030;-72
2020/12/10 03:59:42;;;;;;;29.77;19.63;;;2.80;99.90;;;;;;5011759;28;20033;-72
2020/12/10 04:02:07;;;;;;;30.50;19.73;;;2.70;99.90;;;;;;5000114;28;20024;-72
2020/12/10 04:04:33;;;;;;;29.50;19.40;;;2.60;99.90;;;;;;5005197;28;20022;-72
2020/12/10 04:06:58;;;;;;;29.23;20.23;;;2.60;99.90;;;;;;5001151;28;20061;-72
2020/12/10 04:09:24;;;;;;;33.15;20.13;;;2.60;99.90;;;;;;5005341;28;20033;-73
2020/12/10 04:11:49;;;;;;;29.33;19.63;;;2.50;99.90;;;;;;5005503;28;20091;-72
2020/12/10 04:14:15;;;;;;;30.92;20.13;;;2.40;99.90;;;;;;5006158;28;20035;-72
2020/12/10 04:16:40;;;;;;;30.30;18.77;;;2.50;99.90;;;;;;5011670;28;20129;-71
2020/12/10 04:19:06;;;;;;;30.55;19.80;;;2.40;99.90;;;;;;5003934;28;20030;-73
2020/12/10 04:21:31;;;;;;;31.42;19.65;;;2.40;99.90;;;;;;5005060;28;20473;-72
2020/12/10 04:23:57;;;;;;;30.90;18.52;;;2.40;99.90;;;;;;5002027;28;20054;-72
2020/12/10 04:26:23;;;;;;;28.50;18.70;;;2.40;99.90;;;;;;4999480;28;20032;-73
2020/12/10 04:28:48;;;;;;;27.70;18.75;;;2.50;99.90;;;;;;5006130;28;20034;-72
2020/12/10 04:31:16;;;;;;;31.40;19.08;;;2.60;99.90;;;;;;5000722;28;20035;-72
2020/12/10 04:33:42;;;;;;;31.98;20.30;;;2.80;99.90;;;;;;5003032;28;20108;-72
2020/12/10 04:36:07;;;;;;;30.08;18.48;;;2.80;99.90;;;;;;4997877;28;20113;-72
2020/12/10 04:38:33;;;;;;;27.90;19.80;;;2.90;99.90;;;;;;5004604;28;20028;-73
2020/12/10 04:41:00;;;;;;;27.25;18.25;;;2.90;99.90;;;;;;5006216;28;20062;-72
2020/12/10 04:43:26;;;;;;;31.75;19.23;;;2.70;99.90;;;;;;5000476;28;20101;-72
2020/12/10 04:46:11;;;;;;;30.05;19.60;;;2.50;99.90;;;;;;5004297;28;20101;-72
2020/12/10 04:48:37;;;;;;;31.17;19.50;;;2.40;99.90;;;;;;5011781;28;20078;-72
2020/12/10 04:51:06;;;;;;;31.25;20.02;;;2.50;99.90;;;;;;5019148;28;20022;-72
2020/12/10 04:53:32;;;;;;;29.13;18.70;;;2.70;99.90;;;;;;5022950;28;20053;-73
2020/12/10 04:56:03;;;;;;;32.20;20.08;;;2.70;99.90;;;;;;5019744;28;20029;-73
2020/12/10 04:58:29;;;;;;;31.02;20.08;;;2.70;99.90;;;;;;5032306;28;20030;-73
2020/12/10 05:00:59;;;;;;;31.63;19.15;;;2.70;99.90;;;;;;5019579;28;20029;-72
2020/12/10 05:03:25;;;;;;;29.23;19.58;;;2.70;99.90;;;;;;5006323;28;20504;-72
2020/12/10 05:05:51;;;;;;;34.70;20.00;;;2.80;99.90;;;;;;5007584;28;20034;-72
2020/12/10 05:08:30;;;;;;;32.85;17.75;;;2.60;99.90;;;;;;5007100;28;20026;-72
2020/12/10 05:10:56;;;;;;;31.17;19.98;;;2.50;99.90;;;;;;5006167;28;20026;-72
2020/12/10 05:13:22;;;;;;;32.88;19.33;;;2.50;99.90;;;;;;5004367;28;20050;-72
2020/12/10 05:15:47;;;;;;;30.77;19.67;;;2.60;99.90;;;;;;4999238;28;20072;-72
2020/12/10 05:18:14;;;;;;;29.00;19.40;;;2.60;99.90;;;;;;5005627;28;20114;-72
2020/12/10 05:20:48;;;;;;;30.20;19.55;;;2.40;99.90;;;;;;5012036;28;20026;-72
2020/12/10 05:23:16;;;;;;;27.75;19.13;;;2.40;99.90;;;;;;5004611;28;20023;-73
2020/12/10 05:25:52;;;;;;;33.88;19.38;;;2.40;99.90;;;;;;4999454;28;20034;-71
2020/12/10 05:28:19;;;;;;;30.10;20.40;;;2.40;99.90;;;;;;5030485;23;20061;-72
2020/12/10 05:31:00;;;;;;;28.15;19.02;;;2.50;99.90;;;;;;5028805;28;20042;-70
2020/12/10 05:33:26;;;;;;;33.80;19.15;;;2.60;99.90;;;;;;5024505;28;20034;-68
2020/12/10 05:36:10;;;;;;;31.48;19.38;;;2.60;99.90;;;;;;5026952;28;20071;-69
2020/12/10 05:39:11;;;;;;;31.42;19.92;;;2.70;99.90;;;;;;5021637;28;20558;-69
2020/12/10 05:41:42;;;;;;;25.85;18.08;;;2.50;99.90;;;;;;4920462;29;20046;-69
2020/12/10 05:44:22;;;;;;;31.13;19.98;;;2.60;99.90;;;;;;5012434;28;20030;-68
2020/12/10 05:46:51;;;;;;;25.45;17.63;;;2.60;99.90;;;;;;5022990;28;20505;-70
2020/12/10 05:49:17;;;;;;;28.15;18.17;;;2.70;99.90;;;;;;5022815;28;20029;-68
2020/12/10 05:51:44;;;;;;;26.42;17.48;;;2.50;99.90;;;;;;5025921;28;20053;-70
2020/12/10 05:54:11;;;;;;;26.15;16.83;;;2.60;99.90;;;;;;5019340;28;20029;-70
2020/12/10 05:56:57;;;;;;;25.40;15.85;;;2.60;99.90;;;;;;5026318;28;20043;-67
2020/12/10 05:59:31;;;;;;;26.02;16.77;;;2.50;99.90;;;;;;5022963;28;20083;-68
2020/12/10 06:01:57;;;;;;;28.02;17.45;;;2.60;99.90;;;;;;5021987;28;20111;-69
2020/12/10 06:04:24;;;;;;;29.92;18.05;;;2.60;99.90;;;;;;5021465;28;20032;-69
2020/12/10 06:06:51;;;;;;;31.23;18.15;;;2.80;99.90;;;;;;5022941;28;20034;-69
2020/12/10 06:09:18;;;;;;;30.42;19.55;;;2.70;99.90;;;;;;5023202;28;20095;-70
2020/12/10 06:11:45;;;;;;;27.17;18.60;;;2.80;99.90;;;;;;5019350;28;20088;-70
2020/12/10 06:14:10;;;;;;;29.85;17.77;;;2.80;99.90;;;;;;5021849;28;20033;-69
2020/12/10 06:16:36;;;;;;;25.00;16.42;;;2.70;99.90;;;;;;5028609;28;20384;-69
2020/12/10 06:19:04;;;;;;;22.17;15.40;;;2.60;99.90;;;;;;5026025;28;20029;-69
2020/12/10 06:21:46;;;;;;;23.73;15.90;;;2.60;99.90;;;;;;5027196;28;20386;-70
2020/12/10 06:24:26;;;;;;;30.20;18.55;;;2.70;99.90;;;;;;5024733;28;20034;-68
2020/12/10 06:26:56;;;;;;;29.48;18.55;;;2.40;99.90;;;;;;5006695;28;20108;-70
2020/12/10 06:29:21;;;;;;;26.23;18.75;;;2.40;99.90;;;;;;5024503;28;20041;-70
2020/12/10 06:32:13;;;;;;;26.63;17.38;;;2.40;99.90;;;;;;5019281;28;20040;-70
2020/12/10 06:34:51;;;;;;;29.88;19.42;;;2.40;99.90;;;;;;5020503;28;20033;-70
2020/12/10 06:37:21;;;;;;;31.02;20.00;;;2.30;99.90;;;;;;5022760;28;20033;-69
2020/12/10 06:39:50;;;;;;;30.80;18.27;;;2.30;99.90;;;;;;5014606;28;20036;-67
2020/12/10 06:42:15;;;;;;;26.40;17.65;;;2.30;99.90;;;;;;5020840;28;21241;-71
2020/12/10 06:44:41;;;;;;;28.83;18.08;;;2.40;99.90;;;;;;5019479;28;20216;-69
2020/12/10 06:47:07;;;;;;;26.25;18.15;;;2.40;99.90;;;;;;5022155;28;20025;-68
2020/12/10 06:49:35;;;;;;;27.77;18.10;;;2.60;99.90;;;;;;5016113;28;20026;-68
2020/12/10 06:52:10;;;;;;;26.08;17.27;;;2.60;99.90;;;;;;5018182;28;20038;-70
2020/12/10 06:54:56;;;;;;;27.38;17.40;;;2.70;99.90;;;;;;5018365;28;20102;-69
2020/12/10 06:57:21;;;;;;;23.40;16.40;;;2.80;99.90;;;;;;5018989;28;20033;-71
2020/12/10 06:59:47;;;;;;;25.15;15.25;;;2.70;99.90;;;;;;5020149;28;20510;-71
2020/12/10 07:02:16;;;;;;;24.60;16.52;;;2.70;99.90;;;;;;5025908;28;20026;-71
2020/12/10 07:07:21;;;;;;;26.80;16.52;;;2.70;99.90;;;;;;5029196;28;20029;-68
2020/12/10 07:09:50;;;;;;;23.88;16.25;;;2.60;99.90;;;;;;5014106;28;20037;-71
2020/12/10 07:12:26;;;;;;;28.35;17.00;;;2.80;99.90;;;;;;5029607;28;20033;-69
2020/12/10 07:15:09;;;;;;;25.80;16.08;;;2.80;99.90;;;;;;5014938;28;20041;-70
2020/12/10 07:17:34;;;;;;;26.55;16.20;;;2.80;99.90;;;;;;5012759;28;20109;-70
2020/12/10 07:20:00;;;;;;;25.25;16.42;;;2.70;99.90;;;;;;5012045;28;20113;-70
2020/12/10 07:22:25;;;;;;;26.33;16.33;;;2.80;99.90;;;;;;5017289;28;20026;-68
2020/12/10 07:24:51;;;;;;;24.80;16.83;;;2.70;99.90;;;;;;5019727;28;20045;-70
2020/12/10 07:27:16;;;;;;;24.88;17.20;;;2.80;99.90;;;;;;5022934;28;20029;-70
2020/12/10 07:29:52;;;;;;;24.55;15.65;;;2.80;99.90;;;;;;5021461;28;20038;-70
2020/12/10 07:32:18;;;;;;;29.10;18.92;;;2.80;99.90;;;;;;5017151;28;20339;-70
2020/12/10 07:34:44;;;;;;;29.77;18.13;;;2.80;99.90;;;;;;5016438;28;20037;-69
2020/12/10 07:37:12;;;;;;;27.17;17.10;;;2.90;99.90;;;;;;5021110;28;20054;-71
2020/12/10 07:39:38;;;;;;;24.77;17.02;;;2.90;99.90;;;;;;5031621;28;20515;-70
2020/12/10 07:42:04;;;;;;;25.45;16.33;;;2.90;99.90;;;;;;5022169;28;20397;-70
2020/12/10 07:44:34;;;;;;;24.65;17.23;;;2.80;99.90;;;;;;5021878;28;20025;-70
2020/12/10 07:47:01;;;;;;;27.20;17.13;;;2.80;99.90;;;;;;5022643;28;20037;-71
2020/12/10 07:49:31;;;;;;;25.92;18.58;;;2.90;99.90;;;;;;5024772;28;20091;-69
2020/12/10 07:52:05;;;;;;;24.02;16.45;;;2.80;99.90;;;;;;5023441;28;20034;-70
2020/12/10 07:54:44;;;;;;;30.00;18.02;;;2.70;99.90;;;;;;5021674;28;20045;-69
2020/12/10 07:57:27;;;;;;;26.60;16.88;;;2.90;99.90;;;;;;5022477;28;20052;-70
2020/12/10 08:00:06;;;;;;;29.38;18.83;;;2.80;99.90;;;;;;5016780;28;20017;-70
2020/12/10 08:02:56;;;;;;;25.65;16.27;;;2.90;99.90;;;;;;5016884;28;20032;-70
2020/12/10 08:05:22;;;;;;;27.20;16.53;;;2.90;99.90;;;;;;5020564;28;20504;-70
2020/12/10 08:07:52;;;;;;;29.52;18.48;;;2.80;99.90;;;;;;5022930;28;20037;-71
2020/12/10 08:10:25;;;;;;;29.00;18.27;;;2.80;99.90;;;;;;5012967;28;20480;-70
2020/12/10 08:13:16;;;;;;;28.00;17.23;;;2.80;99.90;;;;;;5015829;28;20288;-69
2020/12/10 08:15:44;;;;;;;25.38;15.50;;;2.90;99.90;;;;;;5012842;28;20018;-71
2020/12/10 08:18:13;;;;;;;22.45;15.73;;;3.00;99.90;;;;;;5013598;28;20469;-70
2020/12/10 08:20:47;;;;;;;20.45;15.25;;;3.00;99.90;;;;;;5014111;28;20030;-71
2020/12/10 08:23:13;;;;;;;19.50;14.95;;;3.10;99.90;;;;;;5008495;28;20088;-70
2020/12/10 08:25:40;;;;;;;23.80;15.30;;;3.10;99.90;;;;;;5013114;28;20052;-71
2020/12/10 08:28:07;;;;;;;21.98;16.02;;;3.10;99.90;;;;;;5013965;28;20057;-70
2020/12/10 08:30:34;;;;;;;23.65;14.93;;;3.10;99.90;;;;;;5013233;28;20065;-70
2020/12/10 08:33:00;;;;;;;23.40;15.18;;;3.10;99.90;;;;;;5013122;28;20041;-70
2020/12/10 08:35:27;;;;;;;18.52;13.75;;;3.00;99.90;;;;;;5013164;28;20034;-70
2020/12/10 08:37:53;;;;;;;20.30;13.32;;;3.10;99.90;;;;;;5021084;28;20528;-70
2020/12/10 08:40:25;;;;;;;25.27;14.75;;;3.00;99.90;;;;;;5013707;28;20049;-71
2020/12/10 08:42:51;;;;;;;21.92;12.63;;;3.10;99.90;;;;;;5012434;28;20036;-71
2020/12/10 08:45:32;;;;;;;20.65;13.70;;;3.10;99.90;;;;;;5017082;28;20034;-71
2020/12/10 08:47:59;;;;;;;18.50;14.40;;;3.20;99.90;;;;;;5012242;28;20034;-71
2020/12/10 08:50:28;;;;;;;20.88;14.10;;;3.10;99.90;;;;;;5013867;28;20284;-71
2020/12/10 08:53:08;;;;;;;21.85;13.73;;;3.10;99.90;;;;;;5013043;28;20036;-70
2020/12/10 08:55:47;;;;;;;20.15;14.23;;;3.00;99.90;;;;;;5020817;28;20216;-72
2020/12/10 08:58:21;;;;;;;18.83;13.63;;;3.20;99.90;;;;;;5018718;28;20049;-71
2020/12/10 09:00:47;;;;;;;21.77;12.93;;;3.00;99.90;;;;;;5021918;28;20030;-71
2020/12/10 09:03:14;;;;;;;16.95;12.75;;;3.10;99.90;;;;;;5013833;28;20088;-72
2020/12/10 09:05:40;;;;;;;18.08;12.10;;;3.30;99.90;;;;;;5022651;28;20461;-72
2020/12/10 09:08:05;;;;;;;20.23;13.40;;;3.30;99.90;;;;;;5013799;28;20033;-70
2020/12/10 09:10:31;;;;;;;19.33;13.77;;;3.10;99.90;;;;;;5013243;28;20525;-70
2020/12/10 09:12:58;;;;;;;22.17;14.88;;;3.00;99.90;;;;;;5013483;28;20026;-71
2020/12/10 09:15:23;;;;;;;18.40;13.38;;;3.00;99.90;;;;;;5016001;28;20025;-68
2020/12/10 09:17:49;;;;;;;20.58;13.48;;;3.10;99.90;;;;;;5019247;28;20052;-71
2020/12/10 09:20:15;;;;;;;19.83;13.07;;;3.10;99.90;;;;;;5016722;28;20018;-71
2020/12/10 09:22:41;;;;;;;17.88;11.60;;;3.40;99.90;;;;;;5006673;28;20018;-72
2020/12/10 09:25:07;;;;;;;25.17;18.35;;;3.50;99.90;;;;;;5016091;28;20025;-71
2020/12/10 09:27:33;;;;;;;20.38;12.82;;;3.30;99.90;;;;;;5015951;28;20045;-70
2020/12/10 09:29:59;;;;;;;24.48;15.15;;;3.10;99.90;;;;;;5017405;28;20121;-71
2020/12/10 09:32:24;;;;;;;19.70;14.43;;;3.00;99.90;;;;;;5016232;28;20113;-71
2020/12/10 09:34:51;;;;;;;17.00;13.60;;;2.90;99.90;;;;;;5015521;28;20472;-70
2020/12/10 09:37:17;;;;;;;15.55;12.30;;;2.90;99.90;;;;;;5016007;28;20022;-70
2020/12/10 09:39:42;;;;;;;14.13;10.40;;;3.00;99.90;;;;;;5023342;28;20021;-70
2020/12/10 09:42:08;;;;;;;12.15;10.05;;;3.10;99.90;;;;;;5019031;28;20025;-71
2020/12/10 09:44:33;;;;;;;13.00;9.73;;;3.20;99.90;;;;;;5034247;28;20555;-69
2020/12/10 09:46:59;;;;;;;12.88;10.02;;;3.50;99.90;;;;;;5023488;28;20053;-71
2020/12/10 09:49:24;;;;;;;13.63;9.88;;;3.60;99.90;;;;;;5015492;28;20033;-70
2020/12/10 09:51:54;;;;;;;16.13;10.60;;;3.60;99.90;;;;;;5017106;28;20030;-69
2020/12/10 09:55:12;;;;;;;12.73;8.77;;;3.90;99.90;;;;;;5017136;28;20030;-70
2020/12/10 09:57:29;;;;;;;10.75;9.00;;;4.10;99.90;;;;;;5022387;28;20079;-66
2020/12/10 09:59:56;;;;;;;10.05;8.05;;;4.10;99.90;;;;;;5019916;28;20030;-72
2020/12/10 10:02:22;;;;;;;9.38;7.43;;;4.20;99.90;;;;;;5015153;28;20026;-72
2020/12/10 10:04:47;;;;;;;14.52;10.15;;;4.40;99.90;;;;;;5024525;28;20115;-70
2020/12/10 10:07:13;;;;;;;16.23;9.57;;;4.20;99.90;;;;;;5020217;28;20033;-70
2020/12/10 10:09:40;;;;;;;12.77;9.52;;;3.90;99.90;;;;;;5019595;28;20030;-71
2020/12/10 10:12:06;;;;;;;12.80;9.70;;;4.00;99.90;;;;;;5017838;28;20112;-70
2020/12/10 10:14:33;;;;;;;10.95;8.57;;;3.90;99.90;;;;;;5015786;28;20453;-71
2020/12/10 10:16:58;;;;;;;17.05;9.27;;;4.10;99.90;;;;;;5015846;28;20400;-69
2020/12/10 10:19:25;;;;;;;10.60;7.65;;;4.30;99.90;;;;;;5016430;28;20030;-70
2020/12/10 10:21:50;;;;;;;12.60;8.02;;;4.60;99.90;;;;;;5016220;28;20553;-70
2020/12/10 10:24:16;;;;;;;15.43;9.13;;;4.30;99.90;;;;;;5014358;28;20105;-70
2020/12/10 10:26:43;;;;;;;12.00;8.55;;;3.90;99.90;;;;;;5014383;28;20033;-71
2020/12/10 10:29:10;;;;;;;9.52;8.32;;;3.70;99.90;;;;;;5014915;28;20030;-70
2020/12/10 10:31:36;;;;;;;10.70;9.13;;;3.70;99.90;;;;;;5016034;28;20037;-71
2020/12/10 10:34:01;;;;;;;14.23;9.45;;;3.80;99.90;;;;;;5016858;28;20034;-70
2020/12/10 10:36:27;;;;;;;14.85;10.63;;;3.90;99.90;;;;;;5014429;28;20480;-71
2020/12/10 10:38:52;;;;;;;13.00;10.07;;;4.10;99.90;;;;;;5015318;28;20109;-70
2020/12/10 10:41:18;;;;;;;11.43;8.93;;;4.40;99.90;;;;;;5014861;28;20065;-71
2020/12/10 10:43:43;;;;;;;11.35;8.68;;;4.50;99.90;;;;;;5014594;28;20401;-69
2020/12/10 10:46:09;;;;;;;9.80;7.75;;;4.40;99.90;;;;;;5014996;28;20034;-69
2020/12/10 10:48:35;;;;;;;13.98;8.85;;;4.20;99.90;;;;;;5013916;28;20022;-71
2020/12/10 10:51:00;;;;;;;12.80;10.38;;;4.20;99.90;;;;;;5026416;28;20044;-71
2020/12/10 10:53:26;;;;;;;14.82;11.43;;;4.30;99.90;;;;;;5017858;28;20042;-72
2020/12/10 10:55:52;;;;;;;13.38;10.95;;;4.50;99.90;;;;;;5028441;28;20032;-70
2020/12/10 10:58:18;;;;;;;20.33;13.48;;;4.60;99.90;;;;;;5021035;28;20026;-71
2020/12/10 11:00:47;;;;;;;19.05;12.90;;;4.80;99.90;;;;;;5024035;28;20079;-71
2020/12/10 11:03:13;;;;;;;16.20;11.82;;;4.80;99.90;;;;;;5014356;28;20021;-72
2020/12/10 11:05:38;;;;;;;19.00;13.18;;;4.90;99.90;;;;;;5014736;28;20489;-71
2020/12/10 11:08:04;;;;;;;19.17;11.50;;;4.80;99.90;;;;;;5013898;28;20109;-71
2020/12/10 11:10:29;;;;;;;16.00;11.05;;;4.90;99.90;;;;;;5017883;28;20510;-70
2020/12/10 11:12:55;;;;;;;14.73;10.90;;;4.70;99.90;;;;;;5025304;28;20033;-70
2020/12/10 11:15:21;;;;;;;15.07;10.55;;;4.50;99.90;;;;;;5019893;28;20095;-70
2020/12/10 11:17:46;;;;;;;17.85;11.30;;;4.50;99.90;;;;;;5015939;28;20115;-72
2020/12/10 11:20:12;;;;;;;16.27;11.90;;;4.20;99.90;;;;;;5015242;28;20025;-71
2020/12/10 11:22:38;;;;;;;14.85;10.10;;;4.40;99.90;;;;;;5013857;28;20037;-70
2020/12/10 11:25:05;;;;;;;12.52;9.48;;;4.50;99.90;;;;;;5013545;28;20022;-70
2020/12/10 11:27:30;;;;;;;13.38;10.35;;;4.60;99.90;;;;;;5014543;28;20099;-71
2020/12/10 11:29:59;;;;;;;14.02;9.48;;;4.60;99.90;;;;;;5041693;23;20132;-68
2020/12/10 11:32:24;;;;;;;14.00;10.18;;;4.60;99.90;;;;;;5021312;28;20053;-69
2020/12/10 11:34:50;;;;;;;12.82;10.23;;;4.80;99.90;;;;;;5024104;28;20103;-68
2020/12/10 11:37:16;;;;;;;14.23;9.77;;;4.80;99.90;;;;;;5022001;28;20033;-67
2020/12/10 11:39:41;;;;;;;14.20;10.10;;;4.70;99.90;;;;;;5020308;28;20541;-71
2020/12/10 11:42:07;;;;;;;17.33;10.55;;;4.70;99.90;;;;;;5015370;28;20022;-69
2020/12/10 11:44:33;;;;;;;14.02;10.60;;;4.60;99.90;;;;;;5006778;28;20078;-68
2020/12/10 11:46:58;;;;;;;14.88;10.65;;;4.40;99.90;;;;;;5004313;28;20509;-69
2020/12/10 11:49:24;;;;;;;15.40;11.32;;;4.00;99.90;;;;;;4999701;28;20049;-72
2020/12/10 11:51:49;;;;;;;15.63;11.63;;;3.90;99.90;;;;;;5011047;28;20292;-71
2020/12/10 11:54:15;;;;;;;18.58;11.93;;;4.10;99.90;;;;;;4999468;28;20108;-69
2020/12/10 11:56:41;;;;;;;13.73;10.82;;;4.40;99.90;;;;;;5012276;28;20036;-70
2020/12/10 11:59:07;;;;;;;14.52;10.85;;;4.10;99.90;;;;;;5017562;28;20097;-71
2020/12/10 12:01:32;;;;;;;19.08;12.15;;;3.90;99.90;;;;;;4999266;28;20053;-70
2020/12/10 12:03:58;;;;;;;16.83;11.65;;;3.90;99.90;;;;;;5006654;28;20026;-70
2020/12/10 12:06:25;;;;;;;16.40;13.07;;;3.90;99.90;;;;;;5009229;28;20023;-70
2020/12/10 12:08:51;;;;;;;20.38;12.23;;;3.80;99.90;;;;;;4993031;28;20639;-69
2020/12/10 12:11:25;;;;;;;22.25;12.73;;;3.90;99.90;;;;;;5006973;28;20056;-71
2020/12/10 12:13:51;;;;;;;16.40;12.40;;;3.90;99.90;;;;;;5010758;28;20026;-72
2020/12/10 12:16:17;;;;;;;20.35;12.73;;;3.80;99.90;;;;;;5003904;28;20152;-69
2020/12/10 12:18:43;;;;;;;22.40;13.65;;;4.00;99.90;;;;;;5018826;28;20481;-69
2020/12/10 12:21:09;;;;;;;20.70;12.68;;;4.10;99.90;;;;;;5009091;28;20111;-69
2020/12/10 12:23:35;;;;;;;18.17;12.38;;;4.10;99.90;;;;;;5006363;28;20091;-70
2020/12/10 12:26:01;;;;;;;18.20;12.13;;;4.40;99.90;;;;;;4996572;28;20662;-71
2020/12/10 12:28:30;;;;;;;16.65;10.82;;;4.60;99.90;;;;;;5012821;28;20515;-69
2020/12/10 12:30:56;;;;;;;16.75;12.10;;;4.60;99.90;;;;;;5006482;28;20034;-69
2020/12/10 12:33:21;;;;;;;19.13;11.90;;;4.70;99.90;;;;;;5006676;28;20036;-67
2020/12/10 12:35:47;;;;;;;21.65;14.30;;;4.60;99.90;;;;;;5010380;28;20424;-71
2020/12/10 12:38:17;;;;;;;18.33;12.75;;;4.30;99.90;;;;;;5006529;28;20155;-70
2020/12/10 12:40:43;;;;;;;19.63;12.73;;;4.40;99.90;;;;;;5002791;28;20521;-70
2020/12/10 12:43:09;;;;;;;17.23;12.00;;;4.50;99.90;;;;;;5000868;28;20042;-69